createdAt,value
2022-07-31T00:01:23.432Z,17.42
2022-07-31T00:06:26.982Z,17.54
2022-07-31T00:11:33.327Z,17.49
2022-07-31T00:16:36.628Z,17.74
2022-07-31T00:21:40.204Z,17.62
2022-07-31T00:26:43.845Z,17.41
2022-07-31T00:31:50.028Z,17.15
2022-07-31T00:36:53.455Z,16.96
2022-07-31T00:41:56.840Z,17.45
2022-07-31T00:47:01.967Z,17.20
2022-07-31T00:52:06.211Z,18.05
2022-07-31T00:57:10.263Z,17.73
2022-07-31T01:02:14.260Z,18.16
2022-07-31T01:07:17.938Z,17.98
2022-07-31T01:12:22.111Z,18.28
2022-07-31T01:17:33.870Z,17.95
2022-07-31T01:22:47.064Z,18.13
2022-07-31T01:28:04.696Z,18.00
2022-07-31T01:33:16.861Z,17.62
2022-07-31T01:38:23.635Z,17.95
2022-07-31T01:43:33.069Z,18.50
2022-07-31T01:48:36.969Z,18.23
2022-07-31T01:53:41.071Z,18.70
2022-07-31T01:58:44.808Z,18.51
2022-07-31T02:03:51.463Z,18.43
2022-07-31T02:08:59.899Z,18.46
2022-07-31T02:14:03.616Z,17.89
2022-07-31T02:19:07.353Z,17.80
2022-07-31T02:24:10.981Z,17.58
2022-07-31T02:29:19.463Z,17.66
2022-07-31T02:34:23.618Z,17.51
2022-07-31T02:39:33.172Z,17.63
2022-07-31T02:44:36.482Z,17.82
2022-07-31T02:49:39.692Z,17.64
2022-07-31T02:54:44.400Z,17.73
2022-07-31T02:59:48.094Z,17.88
2022-07-31T03:04:51.504Z,18.28
2022-07-31T03:09:55.137Z,18.53
2022-07-31T03:14:59.789Z,18.45
2022-07-31T03:20:03.076Z,18.29
2022-07-31T03:25:06.951Z,18.05
2022-07-31T03:30:10.711Z,18.20
2022-07-31T03:35:14.517Z,18.32
2022-07-31T03:40:18.257Z,18.40
2022-07-31T03:45:22.138Z,18.45
2022-07-31T03:50:26.622Z,18.40
2022-07-31T03:55:30.812Z,18.18
2022-07-31T04:00:35.335Z,18.40
2022-07-31T04:05:39.133Z,18.45
2022-07-31T04:10:43.370Z,18.43
2022-07-31T04:15:47.980Z,18.25
2022-07-31T04:20:51.501Z,18.33
2022-07-31T04:25:55.358Z,18.71
2022-07-31T04:30:59.550Z,18.47
2022-07-31T04:36:03.365Z,18.63
2022-07-31T04:41:06.761Z,18.81
2022-07-31T04:46:17.290Z,18.75
2022-07-31T04:51:21.555Z,18.96
2022-07-31T04:56:43.385Z,19.01
2022-07-31T05:01:47.271Z,19.27
2022-07-31T05:06:52.183Z,19.44
2022-07-31T05:11:55.851Z,19.43
2022-07-31T05:16:59.640Z,19.62
2022-07-31T05:22:05.346Z,19.37
2022-07-31T05:27:09.278Z,19.82
2022-07-31T05:32:13.457Z,19.84
2022-07-31T05:37:16.963Z,20.45
2022-07-31T05:42:20.300Z,21.28
2022-07-31T05:47:24.127Z,21.18
2022-07-31T05:52:43.839Z,21.17
2022-07-31T05:57:47.552Z,21.23
2022-07-31T06:02:50.869Z,21.25
2022-07-31T06:07:54.459Z,21.27
2022-07-31T06:12:58.191Z,21.50
2022-07-31T06:18:02.339Z,22.07
2022-07-31T06:23:19.966Z,22.04
2022-07-31T06:28:47.745Z,21.87
2022-07-31T06:33:52.914Z,21.68
2022-07-31T06:38:57.017Z,22.02
2022-07-31T06:44:00.251Z,22.08
2022-07-31T06:49:08.562Z,21.89
2022-07-31T06:54:12.923Z,22.08
2022-07-31T06:59:39.442Z,22.14
2022-07-31T07:04:56.173Z,22.02
2022-07-31T07:10:03.837Z,22.42
2022-07-31T07:15:07.177Z,22.62
2022-07-31T07:20:13.994Z,22.51
2022-07-31T07:25:20.406Z,22.86
2022-07-31T07:30:23.768Z,23.05
2022-07-31T07:35:28.622Z,22.99
2022-07-31T07:40:34.482Z,23.11
2022-07-31T07:45:41.640Z,22.91
2022-07-31T07:50:46.197Z,22.54
2022-07-31T07:55:50.191Z,23.20
2022-07-31T08:00:53.936Z,24.13
2022-07-31T08:05:57.831Z,24.18
2022-07-31T08:11:02.232Z,24.30
2022-07-31T08:16:05.596Z,24.32
2022-07-31T08:21:08.889Z,24.36
2022-07-31T08:26:13.130Z,24.66
2022-07-31T08:31:17.457Z,24.23
2022-07-31T08:36:22.049Z,23.89
2022-07-31T08:41:25.387Z,22.90
2022-07-31T08:46:29.093Z,22.78
2022-07-31T08:51:32.713Z,23.47
2022-07-31T08:56:54.511Z,24.39
2022-07-31T09:01:59.474Z,24.72
2022-07-31T09:07:03.650Z,25.07
2022-07-31T09:12:07.715Z,25.32
2022-07-31T09:17:15.780Z,25.49
2022-07-31T09:22:19.347Z,25.82
2022-07-31T09:27:22.925Z,26.17
2022-07-31T09:32:27.461Z,26.28
2022-07-31T09:37:31.338Z,26.12
2022-07-31T09:42:35.048Z,26.47
2022-07-31T09:47:42.862Z,26.15
2022-07-31T09:52:46.773Z,26.22
2022-07-31T09:57:50.497Z,26.46
2022-07-31T10:02:54.328Z,25.81
2022-07-31T10:07:57.952Z,26.16
2022-07-31T10:13:02.578Z,26.32
2022-07-31T10:18:06.379Z,25.68
2022-07-31T10:23:09.995Z,25.83
2022-07-31T10:28:13.690Z,25.37
2022-07-31T10:33:42.392Z,25.74
2022-07-31T10:38:41.777Z,25.95
2022-07-31T10:43:45.304Z,26.07
2022-07-31T10:48:49.061Z,26.35
2022-07-31T10:53:55.977Z,25.95
2022-07-31T10:59:00.297Z,27.04
2022-07-31T11:04:05.255Z,27.23
2022-07-31T11:09:09.088Z,28.39
2022-07-31T11:14:12.760Z,29.25
2022-07-31T11:19:16.485Z,28.10
2022-07-31T11:24:20.235Z,27.75
2022-07-31T11:30:01.430Z,28.26
2022-07-31T11:34:47.704Z,28.28
2022-07-31T11:39:51.270Z,28.67
2022-07-31T11:44:55.243Z,29.56
2022-07-31T11:49:59.845Z,29.27
2022-07-31T11:55:08.563Z,29.55
2022-07-31T12:00:29.111Z,29.04
2022-07-31T12:05:37.973Z,28.62
2022-07-31T12:10:43.027Z,28.25
2022-07-31T12:15:46.746Z,29.12
2022-07-31T12:20:50.555Z,28.92
2022-07-31T12:25:54.145Z,29.07
2022-07-31T12:30:57.840Z,29.37
2022-07-31T12:36:01.653Z,29.40
2022-07-31T12:41:05.778Z,28.84
2022-07-31T12:46:09.056Z,28.76
2022-07-31T12:51:12.500Z,29.50
2022-07-31T12:56:15.827Z,30.03
2022-07-31T13:01:19.566Z,30.03
2022-07-31T13:06:23.618Z,29.44
2022-07-31T13:11:29.445Z,29.38
2022-07-31T13:16:33.590Z,29.02
2022-07-31T13:21:48.378Z,28.89
2022-07-31T13:26:53.273Z,29.01
2022-07-31T13:31:57.576Z,29.89
2022-07-31T13:37:01.080Z,29.01
2022-07-31T13:42:05.734Z,28.45
2022-07-31T13:47:10.217Z,28.53
2022-07-31T13:52:13.811Z,28.04
2022-07-31T13:57:18.764Z,28.34
2022-07-31T14:02:23.317Z,28.01
2022-07-31T14:07:45.297Z,28.48
2022-07-31T14:12:51.144Z,27.92
2022-07-31T14:17:54.880Z,28.73
2022-07-31T14:22:58.912Z,29.08
2022-07-31T14:28:02.961Z,28.29
2022-07-31T14:33:06.318Z,28.01
2022-07-31T14:38:09.652Z,27.90
2022-07-31T14:43:13.273Z,28.78
2022-07-31T14:48:16.916Z,29.46
2022-07-31T14:53:20.760Z,29.10
2022-07-31T14:58:24.607Z,28.91
2022-07-31T15:03:28.807Z,28.34
2022-07-31T15:08:32.482Z,28.16
2022-07-31T15:13:38.970Z,28.32
2022-07-31T15:18:42.834Z,28.27
2022-07-31T15:23:46.925Z,28.19
2022-07-31T15:28:50.735Z,28.27
2022-07-31T15:33:54.748Z,28.40
2022-07-31T15:38:58.472Z,28.38
2022-07-31T15:44:01.808Z,28.30
2022-07-31T15:49:05.670Z,28.38
2022-07-31T15:54:09.798Z,28.61
2022-07-31T15:59:13.312Z,28.11
2022-07-31T16:04:17.068Z,27.69
2022-07-31T16:09:24.287Z,27.65
2022-07-31T16:14:28.111Z,27.83
2022-07-31T16:19:31.722Z,27.85
2022-07-31T16:24:37.900Z,27.81
2022-07-31T16:29:59.430Z,28.15
2022-07-31T16:35:06.401Z,27.96
2022-07-31T16:40:09.685Z,27.77
2022-07-31T16:45:35.727Z,28.02
2022-07-31T16:50:41.043Z,28.07
2022-07-31T16:55:59.940Z,27.81
2022-07-31T17:01:05.812Z,27.31
2022-07-31T17:06:36.481Z,26.79
2022-07-31T17:11:41.442Z,26.68
2022-07-31T17:16:48.641Z,26.67
2022-07-31T17:21:52.458Z,26.52
2022-07-31T17:26:55.749Z,26.28
2022-07-31T17:31:59.025Z,26.04
2022-07-31T17:37:03.501Z,25.90
2022-07-31T17:42:09.303Z,25.81
2022-07-31T17:47:14.434Z,25.72
2022-07-31T17:52:18.100Z,25.73
2022-07-31T17:57:23.627Z,25.73
2022-07-31T18:02:27.507Z,25.83
2022-07-31T18:07:30.802Z,25.83
2022-07-31T18:12:56.809Z,25.64
2022-07-31T18:17:58.162Z,25.28
2022-07-31T18:23:02.562Z,25.00
2022-07-31T18:28:07.395Z,24.83
2022-07-31T18:33:13.263Z,24.54
2022-07-31T18:38:17.129Z,24.26
2022-07-31T18:43:21.643Z,24.08
2022-07-31T18:48:26.192Z,23.85
2022-07-31T18:53:29.942Z,23.70
2022-07-31T18:58:33.631Z,23.45
2022-07-31T19:03:37.317Z,23.34
2022-07-31T19:08:41.193Z,23.16
2022-07-31T19:13:44.723Z,23.17
2022-07-31T19:18:50.262Z,23.24
2022-07-31T19:23:54.254Z,23.26
2022-07-31T19:28:57.727Z,23.31
2022-07-31T19:34:01.454Z,23.35
2022-07-31T19:39:05.160Z,23.35
2022-07-31T19:44:09.515Z,23.32
2022-07-31T19:49:13.232Z,23.25
2022-07-31T19:54:17.816Z,23.18
2022-07-31T19:59:25.243Z,22.98
2022-07-31T20:04:28.725Z,22.84
2022-07-31T20:09:32.745Z,22.78
2022-07-31T20:14:36.117Z,22.65
2022-07-31T20:20:11.829Z,22.74
2022-07-31T20:25:19.940Z,22.89
2022-07-31T20:30:25.551Z,22.96
2022-07-31T20:35:47.583Z,22.96
2022-07-31T20:40:54.484Z,23.01
2022-07-31T20:45:58.821Z,22.96
2022-07-31T20:51:02.441Z,22.89
2022-07-31T20:56:06.018Z,22.89
2022-07-31T21:01:09.609Z,22.91
2022-07-31T21:06:13.218Z,22.87
2022-07-31T21:11:16.878Z,22.85
2022-07-31T21:16:20.499Z,22.80
2022-07-31T21:21:24.086Z,22.57
2022-07-31T21:26:28.663Z,22.34
2022-07-31T21:31:32.148Z,22.16
2022-07-31T21:36:35.730Z,22.04
2022-07-31T21:41:38.994Z,21.96
2022-07-31T21:46:48.184Z,21.91
2022-07-31T21:51:56.546Z,21.91
2022-07-31T21:57:00.107Z,21.87
2022-07-31T22:02:03.492Z,21.83
2022-07-31T22:07:24.698Z,21.78
2022-07-31T22:12:28.089Z,21.67
2022-07-31T22:17:31.683Z,21.57
2022-07-31T22:22:34.977Z,21.55
2022-07-31T22:27:55.475Z,21.61
2022-07-31T22:32:59.964Z,21.57
2022-07-31T22:38:03.190Z,21.53
2022-07-31T22:44:10.529Z,21.52
2022-07-31T22:48:29.838Z,21.56
2022-07-31T22:53:34.977Z,21.55
2022-07-31T22:58:38.292Z,21.63
2022-07-31T23:03:41.518Z,21.61
2022-07-31T23:08:45.137Z,21.53
2022-07-31T23:14:08.319Z,21.35
2022-07-31T23:19:11.838Z,21.18
2022-07-31T23:24:15.134Z,21.15
2022-07-31T23:29:18.526Z,21.15
2022-07-31T23:34:21.849Z,21.29
2022-07-31T23:39:25.426Z,21.42
2022-07-31T23:44:28.758Z,21.46
2022-07-31T23:49:32.545Z,21.57
2022-07-31T23:54:35.824Z,21.63
2022-07-31T23:59:39.047Z,21.58
